sensor_id;sensor_type;location;lat;lon;timestamp;temperature;humidity
37530;DHT22;23374;52.758;6.872;2023-08-07T00:01:17;15.60;10.60
37530;DHT22;23374;52.758;6.872;2023-08-07T00:03:38;15.60;1.00
37530;DHT22;23374;52.758;6.872;2023-08-07T00:05:58;15.50;1.00
37530;DHT22;23374;52.758;6.872;2023-08-07T00:08:19;15.60;15.70
37530;DHT22;23374;52.758;6.872;2023-08-07T00:10:39;15.60;27.30
37530;DHT22;23374;52.758;6.872;2023-08-07T00:13:00;15.60;28.70
37530;DHT22;23374;52.758;6.872;2023-08-07T00:15:21;15.60;32.90
37530;DHT22;23374;52.758;6.872;2023-08-07T00:17:42;15.50;36.90
37530;DHT22;23374;52.758;6.872;2023-08-07T00:20:03;15.60;39.60
37530;DHT22;23374;52.758;6.872;2023-08-07T00:22:24;15.60;44.60
37530;DHT22;23374;52.758;6.872;2023-08-07T00:24:45;15.60;45.50
37530;DHT22;23374;52.758;6.872;2023-08-07T00:27:07;15.60;34.70
37530;DHT22;23374;52.758;6.872;2023-08-07T00:29:29;15.50;38.90
37530;DHT22;23374;52.758;6.872;2023-08-07T00:31:50;15.50;38.90
37530;DHT22;23374;52.758;6.872;2023-08-07T00:34:10;15.50;43.60
37530;DHT22;23374;52.758;6.872;2023-08-07T00:36:30;15.50;56.80
37530;DHT22;23374;52.758;6.872;2023-08-07T00:38:54;15.50;44.90
37530;DHT22;23374;52.758;6.872;2023-08-07T00:41:20;15.60;45.90
37530;DHT22;23374;52.758;6.872;2023-08-07T00:43:41;15.50;53.80
37530;DHT22;23374;52.758;6.872;2023-08-07T00:46:01;15.50;54.30
37530;DHT22;23374;52.758;6.872;2023-08-07T00:48:22;15.50;51.30
37530;DHT22;23374;52.758;6.872;2023-08-07T00:50:44;15.50;51.20
37530;DHT22;23374;52.758;6.872;2023-08-07T00:53:04;15.50;50.40
37530;DHT22;23374;52.758;6.872;2023-08-07T00:55:25;15.50;56.30
37530;DHT22;23374;52.758;6.872;2023-08-07T00:57:46;15.50;46.00
37530;DHT22;23374;52.758;6.872;2023-08-07T01:00:07;15.60;40.70
37530;DHT22;23374;52.758;6.872;2023-08-07T01:02:28;15.50;41.90
37530;DHT22;23374;52.758;6.872;2023-08-07T01:04:49;15.50;44.40
37530;DHT22;23374;52.758;6.872;2023-08-07T01:07:10;15.60;41.70
37530;DHT22;23374;52.758;6.872;2023-08-07T01:09:30;15.60;38.20
37530;DHT22;23374;52.758;6.872;2023-08-07T01:12:20;15.60;33.80
37530;DHT22;23374;52.758;6.872;2023-08-07T01:15:04;15.60;54.30
37530;DHT22;23374;52.758;6.872;2023-08-07T01:17:28;15.60;63.70
37530;DHT22;23374;52.758;6.872;2023-08-07T01:19:51;15.60;20.80
37530;DHT22;23374;52.758;6.872;2023-08-07T01:22:17;15.60;33.40
37530;DHT22;23374;52.758;6.872;2023-08-07T01:24:40;15.60;34.30
37530;DHT22;23374;52.758;6.872;2023-08-07T01:27:38;15.60;26.40
37530;DHT22;23374;52.758;6.872;2023-08-07T01:30:38;15.60;38.30
37530;DHT22;23374;52.758;6.872;2023-08-07T01:34:35;15.50;40.60
37530;DHT22;23374;52.758;6.872;2023-08-07T01:36:58;15.50;52.10
37530;DHT22;23374;52.758;6.872;2023-08-07T01:39:20;15.50;33.60
37530;DHT22;23374;52.758;6.872;2023-08-07T01:41:41;15.50;37.00
37530;DHT22;23374;52.758;6.872;2023-08-07T01:44:01;15.50;28.90
37530;DHT22;23374;52.758;6.872;2023-08-07T01:46:22;15.50;41.60
37530;DHT22;23374;52.758;6.872;2023-08-07T01:48:43;15.40;38.20
37530;DHT22;23374;52.758;6.872;2023-08-07T01:51:03;15.40;40.00
37530;DHT22;23374;52.758;6.872;2023-08-07T01:53:24;15.40;72.40
37530;DHT22;23374;52.758;6.872;2023-08-07T01:55:44;15.40;45.60
37530;DHT22;23374;52.758;6.872;2023-08-07T01:58:04;15.30;47.20
37530;DHT22;23374;52.758;6.872;2023-08-07T02:00:24;15.30;51.50
37530;DHT22;23374;52.758;6.872;2023-08-07T02:02:45;15.30;51.20
37530;DHT22;23374;52.758;6.872;2023-08-07T02:05:07;15.30;53.70
37530;DHT22;23374;52.758;6.872;2023-08-07T02:07:27;15.20;51.00
37530;DHT22;23374;52.758;6.872;2023-08-07T02:09:48;15.20;69.40
37530;DHT22;23374;52.758;6.872;2023-08-07T02:12:08;15.20;94.30
37530;DHT22;23374;52.758;6.872;2023-08-07T02:14:28;15.30;83.60
37530;DHT22;23374;52.758;6.872;2023-08-07T02:16:49;15.20;58.90
37530;DHT22;23374;52.758;6.872;2023-08-07T02:19:09;15.20;78.90
37530;DHT22;23374;52.758;6.872;2023-08-07T02:21:29;15.20;72.00
37530;DHT22;23374;52.758;6.872;2023-08-07T02:23:49;15.20;90.60
37530;DHT22;23374;52.758;6.872;2023-08-07T02:26:10;15.20;89.50
37530;DHT22;23374;52.758;6.872;2023-08-07T02:28:30;15.20;72.10
37530;DHT22;23374;52.758;6.872;2023-08-07T02:30:50;15.20;68.90
37530;DHT22;23374;52.758;6.872;2023-08-07T02:33:13;15.20;51.30
37530;DHT22;23374;52.758;6.872;2023-08-07T02:35:33;15.20;63.00
37530;DHT22;23374;52.758;6.872;2023-08-07T02:37:54;15.20;59.70
37530;DHT22;23374;52.758;6.872;2023-08-07T02:40:14;15.20;70.50
37530;DHT22;23374;52.758;6.872;2023-08-07T02:42:35;15.20;45.50
37530;DHT22;23374;52.758;6.872;2023-08-07T02:44:56;15.20;46.30
37530;DHT22;23374;52.758;6.872;2023-08-07T02:47:16;15.20;45.50
37530;DHT22;23374;52.758;6.872;2023-08-07T02:49:36;15.20;33.20
37530;DHT22;23374;52.758;6.872;2023-08-07T02:51:57;15.20;47.70
37530;DHT22;23374;52.758;6.872;2023-08-07T02:54:17;15.20;45.00
37530;DHT22;23374;52.758;6.872;2023-08-07T02:56:41;15.20;32.00
37530;DHT22;23374;52.758;6.872;2023-08-07T02:59:01;15.20;29.00
37530;DHT22;23374;52.758;6.872;2023-08-07T03:01:21;15.10;31.20
37530;DHT22;23374;52.758;6.872;2023-08-07T03:03:45;15.10;25.10
37530;DHT22;23374;52.758;6.872;2023-08-07T03:06:05;15.20;34.60
37530;DHT22;23374;52.758;6.872;2023-08-07T03:08:25;15.10;52.50
37530;DHT22;23374;52.758;6.872;2023-08-07T03:10:54;15.10;38.70
37530;DHT22;23374;52.758;6.872;2023-08-07T03:13:18;15.10;44.20
37530;DHT22;23374;52.758;6.872;2023-08-07T03:15:39;15.10;48.60
37530;DHT22;23374;52.758;6.872;2023-08-07T03:17:59;15.10;56.90
37530;DHT22;23374;52.758;6.872;2023-08-07T03:20:19;15.10;62.40
37530;DHT22;23374;52.758;6.872;2023-08-07T03:22:40;15.00;72.60
37530;DHT22;23374;52.758;6.872;2023-08-07T03:25:00;15.00;65.30
37530;DHT22;23374;52.758;6.872;2023-08-07T03:27:21;15.00;87.50
37530;DHT22;23374;52.758;6.872;2023-08-07T03:29:41;15.00;91.70
37530;DHT22;23374;52.758;6.872;2023-08-07T03:32:02;15.00;77.90
37530;DHT22;23374;52.758;6.872;2023-08-07T03:34:22;15.00;98.80
37530;DHT22;23374;52.758;6.872;2023-08-07T03:36:42;15.00;94.10
37530;DHT22;23374;52.758;6.872;2023-08-07T03:39:03;14.90;97.60
37530;DHT22;23374;52.758;6.872;2023-08-07T03:41:20;14.90;99.90
37530;DHT22;23374;52.758;6.872;2023-08-07T03:43:40;14.90;99.90
37530;DHT22;23374;52.758;6.872;2023-08-07T03:46:01;14.90;99.90
37530;DHT22;23374;52.758;6.872;2023-08-07T03:48:22;14.90;99.90
37530;DHT22;23374;52.758;6.872;2023-08-07T03:50:42;14.80;99.90
37530;DHT22;23374;52.758;6.872;2023-08-07T03:53:04;14.90;99.90
37530;DHT22;23374;52.758;6.872;2023-08-07T03:55:27;14.80;99.90
37530;DHT22;23374;52.758;6.872;2023-08-07T03:57:47;14.80;99.90
37530;DHT22;23374;52.758;6.872;2023-08-07T04:00:08;14.80;99.90
37530;DHT22;23374;52.758;6.872;2023-08-07T04:02:29;14.80;99.90
37530;DHT22;23374;52.758;6.872;2023-08-07T04:04:50;14.80;99.90
37530;DHT22;23374;52.758;6.872;2023-08-07T04:07:10;14.80;99.90
37530;DHT22;23374;52.758;6.872;2023-08-07T04:09:32;14.80;99.90
37530;DHT22;23374;52.758;6.872;2023-08-07T04:11:52;14.80;99.90
37530;DHT22;23374;52.758;6.872;2023-08-07T04:14:12;14.80;99.90
37530;DHT22;23374;52.758;6.872;2023-08-07T04:16:33;14.80;99.90
37530;DHT22;23374;52.758;6.872;2023-08-07T04:18:53;14.80;99.90
37530;DHT22;23374;52.758;6.872;2023-08-07T04:21:13;14.80;99.90
37530;DHT22;23374;52.758;6.872;2023-08-07T04:23:33;14.80;99.90
37530;DHT22;23374;52.758;6.872;2023-08-07T04:25:54;14.80;99.90
37530;DHT22;23374;52.758;6.872;2023-08-07T04:28:14;14.80;99.90
37530;DHT22;23374;52.758;6.872;2023-08-07T04:30:35;14.80;99.90
37530;DHT22;23374;52.758;6.872;2023-08-07T04:32:55;14.80;99.90
37530;DHT22;23374;52.758;6.872;2023-08-07T04:35:16;14.80;99.90
37530;DHT22;23374;52.758;6.872;2023-08-07T04:37:36;14.90;99.90
37530;DHT22;23374;52.758;6.872;2023-08-07T04:39:56;14.90;99.90
37530;DHT22;23374;52.758;6.872;2023-08-07T04:42:17;14.90;99.90
37530;DHT22;23374;52.758;6.872;2023-08-07T04:44:37;14.90;99.90
37530;DHT22;23374;52.758;6.872;2023-08-07T04:46:58;14.90;99.90
37530;DHT22;23374;52.758;6.872;2023-08-07T04:49:18;15.00;99.90
37530;DHT22;23374;52.758;6.872;2023-08-07T04:51:39;15.00;99.90
37530;DHT22;23374;52.758;6.872;2023-08-07T04:53:59;15.00;99.90
37530;DHT22;23374;52.758;6.872;2023-08-07T04:56:20;15.00;99.90
37530;DHT22;23374;52.758;6.872;2023-08-07T04:58:40;15.00;99.90
37530;DHT22;23374;52.758;6.872;2023-08-07T05:01:01;15.00;99.90
37530;DHT22;23374;52.758;6.872;2023-08-07T05:03:21;15.00;99.90
37530;DHT22;23374;52.758;6.872;2023-08-07T05:05:42;14.90;99.90
37530;DHT22;23374;52.758;6.872;2023-08-07T05:08:03;14.90;99.90
37530;DHT22;23374;52.758;6.872;2023-08-07T05:10:23;15.00;99.90
37530;DHT22;23374;52.758;6.872;2023-08-07T05:12:44;14.90;99.90
37530;DHT22;23374;52.758;6.872;2023-08-07T05:15:05;14.90;99.90
37530;DHT22;23374;52.758;6.872;2023-08-07T05:17:26;14.90;99.90
37530;DHT22;23374;52.758;6.872;2023-08-07T05:19:46;15.00;99.90
37530;DHT22;23374;52.758;6.872;2023-08-07T05:22:07;14.90;99.90
37530;DHT22;23374;52.758;6.872;2023-08-07T05:24:27;14.90;99.90
37530;DHT22;23374;52.758;6.872;2023-08-07T05:26:48;14.90;99.90
37530;DHT22;23374;52.758;6.872;2023-08-07T05:29:08;15.00;99.90
37530;DHT22;23374;52.758;6.872;2023-08-07T05:31:28;15.00;99.90
37530;DHT22;23374;52.758;6.872;2023-08-07T05:33:49;15.00;99.90
37530;DHT22;23374;52.758;6.872;2023-08-07T05:36:10;15.00;99.90
37530;DHT22;23374;52.758;6.872;2023-08-07T05:38:31;15.00;99.90
37530;DHT22;23374;52.758;6.872;2023-08-07T05:40:51;15.00;99.90
37530;DHT22;23374;52.758;6.872;2023-08-07T05:43:12;15.00;99.90
37530;DHT22;23374;52.758;6.872;2023-08-07T05:45:33;15.10;99.90
37530;DHT22;23374;52.758;6.872;2023-08-07T05:47:53;15.10;99.90
37530;DHT22;23374;52.758;6.872;2023-08-07T05:50:14;15.10;99.90
37530;DHT22;23374;52.758;6.872;2023-08-07T05:52:35;15.10;99.90
37530;DHT22;23374;52.758;6.872;2023-08-07T05:54:55;15.10;99.90
37530;DHT22;23374;52.758;6.872;2023-08-07T05:57:15;15.10;99.90
37530;DHT22;23374;52.758;6.872;2023-08-07T05:59:35;15.10;99.90
37530;DHT22;23374;52.758;6.872;2023-08-07T06:01:56;15.10;99.90
37530;DHT22;23374;52.758;6.872;2023-08-07T06:04:17;15.00;99.90
37530;DHT22;23374;52.758;6.872;2023-08-07T06:06:38;15.10;99.90
37530;DHT22;23374;52.758;6.872;2023-08-07T06:08:59;15.10;99.90
37530;DHT22;23374;52.758;6.872;2023-08-07T06:11:20;15.00;99.90
37530;DHT22;23374;52.758;6.872;2023-08-07T06:13:41;15.10;99.90
37530;DHT22;23374;52.758;6.872;2023-08-07T06:16:10;15.00;99.90
37530;DHT22;23374;52.758;6.872;2023-08-07T06:18:30;15.00;99.90
37530;DHT22;23374;52.758;6.872;2023-08-07T06:20:50;15.10;99.90
37530;DHT22;23374;52.758;6.872;2023-08-07T06:23:11;15.00;99.90
37530;DHT22;23374;52.758;6.872;2023-08-07T06:25:31;15.00;99.90
37530;DHT22;23374;52.758;6.872;2023-08-07T06:27:51;15.00;99.90
37530;DHT22;23374;52.758;6.872;2023-08-07T06:30:12;15.00;99.90
37530;DHT22;23374;52.758;6.872;2023-08-07T06:32:34;15.00;99.90
37530;DHT22;23374;52.758;6.872;2023-08-07T06:34:54;15.10;99.90
37530;DHT22;23374;52.758;6.872;2023-08-07T06:37:14;15.10;99.90
37530;DHT22;23374;52.758;6.872;2023-08-07T06:39:35;15.10;99.90
37530;DHT22;23374;52.758;6.872;2023-08-07T06:41:55;15.20;99.90
37530;DHT22;23374;52.758;6.872;2023-08-07T06:44:17;15.20;99.90
37530;DHT22;23374;52.758;6.872;2023-08-07T06:46:37;15.30;99.90
37530;DHT22;23374;52.758;6.872;2023-08-07T06:48:58;15.30;71.90
37530;DHT22;23374;52.758;6.872;2023-08-07T06:51:18;15.40;28.40
37530;DHT22;23374;52.758;6.872;2023-08-07T06:53:39;15.40;44.20
37530;DHT22;23374;52.758;6.872;2023-08-07T06:55:59;15.50;99.90
37530;DHT22;23374;52.758;6.872;2023-08-07T06:58:19;15.60;91.00
37530;DHT22;23374;52.758;6.872;2023-08-07T07:00:40;15.70;95.00
37530;DHT22;23374;52.758;6.872;2023-08-07T07:03:00;15.80;86.70
37530;DHT22;23374;52.758;6.872;2023-08-07T07:05:21;15.80;74.10
37530;DHT22;23374;52.758;6.872;2023-08-07T07:07:41;15.80;77.10
37530;DHT22;23374;52.758;6.872;2023-08-07T07:10:02;15.80;93.90
37530;DHT22;23374;52.758;6.872;2023-08-07T07:12:22;15.80;97.20
37530;DHT22;23374;52.758;6.872;2023-08-07T07:14:43;15.80;99.90
37530;DHT22;23374;52.758;6.872;2023-08-07T07:17:03;15.80;99.90
37530;DHT22;23374;52.758;6.872;2023-08-07T07:19:24;15.90;99.90
37530;DHT22;23374;52.758;6.872;2023-08-07T07:21:44;15.90;83.20
37530;DHT22;23374;52.758;6.872;2023-08-07T07:24:05;16.00;99.90
37530;DHT22;23374;52.758;6.872;2023-08-07T07:26:26;16.00;68.80
37530;DHT22;23374;52.758;6.872;2023-08-07T07:28:49;16.00;36.20
37530;DHT22;23374;52.758;6.872;2023-08-07T07:31:11;16.00;6.50
37530;DHT22;23374;52.758;6.872;2023-08-07T07:33:31;15.90;1.00
37530;DHT22;23374;52.758;6.872;2023-08-07T07:35:51;15.90;99.90
37530;DHT22;23374;52.758;6.872;2023-08-07T07:38:12;15.90;99.90
37530;DHT22;23374;52.758;6.872;2023-08-07T07:40:34;15.90;99.90
37530;DHT22;23374;52.758;6.872;2023-08-07T07:42:54;15.90;99.90
37530;DHT22;23374;52.758;6.872;2023-08-07T07:45:15;16.00;99.90
37530;DHT22;23374;52.758;6.872;2023-08-07T07:47:35;16.00;99.90
37530;DHT22;23374;52.758;6.872;2023-08-07T07:50:06;16.00;99.90
37530;DHT22;23374;52.758;6.872;2023-08-07T07:52:27;16.00;99.90
37530;DHT22;23374;52.758;6.872;2023-08-07T07:54:48;16.20;99.90
37530;DHT22;23374;52.758;6.872;2023-08-07T07:57:08;16.20;92.10
37530;DHT22;23374;52.758;6.872;2023-08-07T07:59:29;16.20;73.20
37530;DHT22;23374;52.758;6.872;2023-08-07T08:01:49;16.20;62.30
37530;DHT22;23374;52.758;6.872;2023-08-07T08:04:11;16.30;51.40
37530;DHT22;23374;52.758;6.872;2023-08-07T08:06:31;16.30;54.00
37530;DHT22;23374;52.758;6.872;2023-08-07T08:08:52;16.30;39.10
37530;DHT22;23374;52.758;6.872;2023-08-07T08:11:13;16.30;78.60
37530;DHT22;23374;52.758;6.872;2023-08-07T08:13:34;16.30;49.60
37530;DHT22;23374;52.758;6.872;2023-08-07T08:15:58;16.30;40.10
37530;DHT22;23374;52.758;6.872;2023-08-07T08:18:19;16.30;71.90
37530;DHT22;23374;52.758;6.872;2023-08-07T08:20:39;16.30;28.00
37530;DHT22;23374;52.758;6.872;2023-08-07T08:22:59;16.30;1.00
37530;DHT22;23374;52.758;6.872;2023-08-07T08:25:20;16.20;4.70
37530;DHT22;23374;52.758;6.872;2023-08-07T08:27:40;16.20;27.10
37530;DHT22;23374;52.758;6.872;2023-08-07T08:30:02;16.20;49.90
37530;DHT22;23374;52.758;6.872;2023-08-07T08:32:22;16.30;56.00
37530;DHT22;23374;52.758;6.872;2023-08-07T08:34:42;16.30;66.70
37530;DHT22;23374;52.758;6.872;2023-08-07T08:37:04;16.30;40.20
37530;DHT22;23374;52.758;6.872;2023-08-07T08:39:28;16.30;41.30
37530;DHT22;23374;52.758;6.872;2023-08-07T08:41:50;16.40;55.90
37530;DHT22;23374;52.758;6.872;2023-08-07T08:44:12;16.40;25.40
37530;DHT22;23374;52.758;6.872;2023-08-07T08:46:34;16.50;1.00
37530;DHT22;23374;52.758;6.872;2023-08-07T08:49:00;16.50;1.00
37530;DHT22;23374;52.758;6.872;2023-08-07T08:51:22;16.50;1.00
37530;DHT22;23374;52.758;6.872;2023-08-07T08:53:46;16.60;23.50
37530;DHT22;23374;52.758;6.872;2023-08-07T08:56:07;16.70;1.00
37530;DHT22;23374;52.758;6.872;2023-08-07T08:58:28;16.70;1.00
37530;DHT22;23374;52.758;6.872;2023-08-07T09:00:49;16.60;68.80
37530;DHT22;23374;52.758;6.872;2023-08-07T09:03:10;16.30;99.90
37530;DHT22;23374;52.758;6.872;2023-08-07T09:05:31;16.10;99.90
37530;DHT22;23374;52.758;6.872;2023-08-07T09:07:52;15.80;99.90
37530;DHT22;23374;52.758;6.872;2023-08-07T09:10:16;15.50;99.90
37530;DHT22;23374;52.758;6.872;2023-08-07T09:12:40;15.30;99.90
37530;DHT22;23374;52.758;6.872;2023-08-07T09:15:03;15.20;99.90
37530;DHT22;23374;52.758;6.872;2023-08-07T09:17:28;15.10;99.90
37530;DHT22;23374;52.758;6.872;2023-08-07T09:19:49;15.10;99.90
37530;DHT22;23374;52.758;6.872;2023-08-07T09:22:10;15.10;99.90
37530;DHT22;23374;52.758;6.872;2023-08-07T09:24:31;15.20;99.90
37530;DHT22;23374;52.758;6.872;2023-08-07T09:26:52;15.30;99.90
37530;DHT22;23374;52.758;6.872;2023-08-07T09:29:13;15.40;99.90
37530;DHT22;23374;52.758;6.872;2023-08-07T09:31:37;15.50;99.90
37530;DHT22;23374;52.758;6.872;2023-08-07T09:34:04;15.60;99.90
37530;DHT22;23374;52.758;6.872;2023-08-07T09:36:25;15.70;99.90
37530;DHT22;23374;52.758;6.872;2023-08-07T09:38:52;15.80;99.90
37530;DHT22;23374;52.758;6.872;2023-08-07T09:41:13;15.90;99.90
37530;DHT22;23374;52.758;6.872;2023-08-07T09:43:37;16.00;99.90
37530;DHT22;23374;52.758;6.872;2023-08-07T09:46:07;16.00;51.40
37530;DHT22;23374;52.758;6.872;2023-08-07T09:48:28;16.10;46.10
37530;DHT22;23374;52.758;6.872;2023-08-07T09:50:48;16.20;92.00
37530;DHT22;23374;52.758;6.872;2023-08-07T09:53:09;16.30;14.80
37530;DHT22;23374;52.758;6.872;2023-08-07T09:55:30;16.40;1.00
37530;DHT22;23374;52.758;6.872;2023-08-07T09:57:52;16.40;1.00
37530;DHT22;23374;52.758;6.872;2023-08-07T10:00:13;16.50;1.00
37530;DHT22;23374;52.758;6.872;2023-08-07T10:02:37;16.60;1.00
37530;DHT22;23374;52.758;6.872;2023-08-07T10:04:58;16.70;1.00
37530;DHT22;23374;52.758;6.872;2023-08-07T10:07:19;16.80;1.00
37530;DHT22;23374;52.758;6.872;2023-08-07T10:09:40;16.80;1.00
37530;DHT22;23374;52.758;6.872;2023-08-07T10:12:02;16.80;1.00
37530;DHT22;23374;52.758;6.872;2023-08-07T10:14:23;17.00;1.00
37530;DHT22;23374;52.758;6.872;2023-08-07T10:16:45;17.10;1.00
37530;DHT22;23374;52.758;6.872;2023-08-07T10:19:06;17.10;1.00
37530;DHT22;23374;52.758;6.872;2023-08-07T10:21:27;17.20;1.00
37530;DHT22;23374;52.758;6.872;2023-08-07T10:23:52;17.30;1.00
37530;DHT22;23374;52.758;6.872;2023-08-07T10:26:13;17.50;1.00
37530;DHT22;23374;52.758;6.872;2023-08-07T10:28:37;17.50;1.00
37530;DHT22;23374;52.758;6.872;2023-08-07T10:30:59;17.40;1.00
37530;DHT22;23374;52.758;6.872;2023-08-07T10:33:20;17.40;1.00
37530;DHT22;23374;52.758;6.872;2023-08-07T10:35:46;17.30;1.00
37530;DHT22;23374;52.758;6.872;2023-08-07T10:38:11;17.20;1.00
37530;DHT22;23374;52.758;6.872;2023-08-07T10:40:32;17.20;1.00
37530;DHT22;23374;52.758;6.872;2023-08-07T10:43:11;17.20;1.00
37530;DHT22;23374;52.758;6.872;2023-08-07T10:45:34;17.20;1.00
37530;DHT22;23374;52.758;6.872;2023-08-07T10:48:11;17.30;1.00
37530;DHT22;23374;52.758;6.872;2023-08-07T10:50:33;17.40;99.90
37530;DHT22;23374;52.758;6.872;2023-08-07T10:52:53;17.50;1.00
37530;DHT22;23374;52.758;6.872;2023-08-07T10:55:14;17.50;99.90
37530;DHT22;23374;52.758;6.872;2023-08-07T10:57:40;17.50;99.90
37530;DHT22;23374;52.758;6.872;2023-08-07T11:00:05;17.50;99.90
37530;DHT22;23374;52.758;6.872;2023-08-07T11:02:30;17.50;99.90
37530;DHT22;23374;52.758;6.872;2023-08-07T11:04:53;17.40;99.90
37530;DHT22;23374;52.758;6.872;2023-08-07T11:07:26;17.50;99.90
37530;DHT22;23374;52.758;6.872;2023-08-07T11:09:47;17.40;99.90
37530;DHT22;23374;52.758;6.872;2023-08-07T11:12:07;17.40;1.00
37530;DHT22;23374;52.758;6.872;2023-08-07T11:14:28;17.40;1.00
37530;DHT22;23374;52.758;6.872;2023-08-07T11:16:49;17.50;1.00
37530;DHT22;23374;52.758;6.872;2023-08-07T11:19:09;17.60;1.00
37530;DHT22;23374;52.758;6.872;2023-08-07T11:21:33;17.60;1.00
37530;DHT22;23374;52.758;6.872;2023-08-07T11:23:54;17.60;1.00
37530;DHT22;23374;52.758;6.872;2023-08-07T11:26:14;17.60;99.90
37530;DHT22;23374;52.758;6.872;2023-08-07T11:28:35;17.60;1.00
37530;DHT22;23374;52.758;6.872;2023-08-07T11:30:56;17.50;1.00
37530;DHT22;23374;52.758;6.872;2023-08-07T11:33:19;17.40;1.00
37530;DHT22;23374;52.758;6.872;2023-08-07T11:35:42;17.30;1.00
37530;DHT22;23374;52.758;6.872;2023-08-07T11:38:03;17.20;99.90
37530;DHT22;23374;52.758;6.872;2023-08-07T11:40:23;17.30;1.00
37530;DHT22;23374;52.758;6.872;2023-08-07T11:42:44;17.40;1.00
37530;DHT22;23374;52.758;6.872;2023-08-07T11:45:05;17.50;99.90
37530;DHT22;23374;52.758;6.872;2023-08-07T11:47:26;17.60;1.00
37530;DHT22;23374;52.758;6.872;2023-08-07T11:49:48;17.70;99.90
37530;DHT22;23374;52.758;6.872;2023-08-07T11:52:08;17.70;99.90
37530;DHT22;23374;52.758;6.872;2023-08-07T11:54:29;17.80;99.90
37530;DHT22;23374;52.758;6.872;2023-08-07T11:56:50;17.80;99.90
37530;DHT22;23374;52.758;6.872;2023-08-07T11:59:10;17.80;99.90
37530;DHT22;23374;52.758;6.872;2023-08-07T12:01:38;17.80;99.90
37530;DHT22;23374;52.758;6.872;2023-08-07T12:04:11;17.80;99.90
37530;DHT22;23374;52.758;6.872;2023-08-07T12:06:32;17.90;99.90
37530;DHT22;23374;52.758;6.872;2023-08-07T12:08:57;18.00;99.90
37530;DHT22;23374;52.758;6.872;2023-08-07T12:11:17;18.10;99.90
37530;DHT22;23374;52.758;6.872;2023-08-07T12:13:43;18.10;99.90
37530;DHT22;23374;52.758;6.872;2023-08-07T12:16:05;18.10;99.90
37530;DHT22;23374;52.758;6.872;2023-08-07T12:18:27;18.20;99.90
37530;DHT22;23374;52.758;6.872;2023-08-07T12:20:52;18.20;99.90
37530;DHT22;23374;52.758;6.872;2023-08-07T12:23:16;18.30;99.90
37530;DHT22;23374;52.758;6.872;2023-08-07T12:25:36;18.30;99.90
37530;DHT22;23374;52.758;6.872;2023-08-07T12:27:57;18.40;99.90
37530;DHT22;23374;52.758;6.872;2023-08-07T12:30:17;18.40;99.90
37530;DHT22;23374;52.758;6.872;2023-08-07T12:32:37;18.50;99.90
37530;DHT22;23374;52.758;6.872;2023-08-07T12:34:57;18.50;99.90
37530;DHT22;23374;52.758;6.872;2023-08-07T12:37:18;18.50;99.90
37530;DHT22;23374;52.758;6.872;2023-08-07T12:39:38;18.60;99.90
37530;DHT22;23374;52.758;6.872;2023-08-07T12:41:58;18.60;99.90
37530;DHT22;23374;52.758;6.872;2023-08-07T12:44:18;18.70;99.90
37530;DHT22;23374;52.758;6.872;2023-08-07T12:46:39;18.70;99.90
37530;DHT22;23374;52.758;6.872;2023-08-07T12:49:08;18.60;99.90
37530;DHT22;23374;52.758;6.872;2023-08-07T12:51:28;18.60;99.90
37530;DHT22;23374;52.758;6.872;2023-08-07T12:53:49;18.50;99.90
37530;DHT22;23374;52.758;6.872;2023-08-07T12:56:11;18.30;99.90
37530;DHT22;23374;52.758;6.872;2023-08-07T12:58:31;18.10;99.90
37530;DHT22;23374;52.758;6.872;2023-08-07T13:00:52;18.10;99.90
37530;DHT22;23374;52.758;6.872;2023-08-07T13:03:12;18.00;99.90
37530;DHT22;23374;52.758;6.872;2023-08-07T13:05:32;17.80;99.90
37530;DHT22;23374;52.758;6.872;2023-08-07T13:07:52;17.70;99.90
37530;DHT22;23374;52.758;6.872;2023-08-07T13:10:18;17.70;99.90
37530;DHT22;23374;52.758;6.872;2023-08-07T13:12:41;17.60;99.90
37530;DHT22;23374;52.758;6.872;2023-08-07T13:15:03;17.50;99.90
37530;DHT22;23374;52.758;6.872;2023-08-07T13:17:24;17.50;99.90
37530;DHT22;23374;52.758;6.872;2023-08-07T13:19:45;17.60;99.90
37530;DHT22;23374;52.758;6.872;2023-08-07T13:22:07;17.60;99.90
37530;DHT22;23374;52.758;6.872;2023-08-07T13:24:27;17.60;99.90
37530;DHT22;23374;52.758;6.872;2023-08-07T13:26:47;17.60;99.90
37530;DHT22;23374;52.758;6.872;2023-08-07T13:29:08;17.50;99.90
37530;DHT22;23374;52.758;6.872;2023-08-07T13:31:28;17.40;1.00
37530;DHT22;23374;52.758;6.872;2023-08-07T13:33:49;17.30;1.00
37530;DHT22;23374;52.758;6.872;2023-08-07T13:36:10;17.30;1.00
37530;DHT22;23374;52.758;6.872;2023-08-07T13:38:30;17.40;1.00
37530;DHT22;23374;52.758;6.872;2023-08-07T13:40:50;17.40;1.00
37530;DHT22;23374;52.758;6.872;2023-08-07T13:43:11;17.40;1.00
37530;DHT22;23374;52.758;6.872;2023-08-07T13:45:31;17.40;1.00
37530;DHT22;23374;52.758;6.872;2023-08-07T13:47:51;17.30;1.00
37530;DHT22;23374;52.758;6.872;2023-08-07T13:50:12;17.30;1.00
37530;DHT22;23374;52.758;6.872;2023-08-07T13:52:36;17.30;1.00
37530;DHT22;23374;52.758;6.872;2023-08-07T13:54:56;17.30;1.00
37530;DHT22;23374;52.758;6.872;2023-08-07T13:57:17;17.30;1.00
37530;DHT22;23374;52.758;6.872;2023-08-07T13:59:37;17.20;1.00
37530;DHT22;23374;52.758;6.872;2023-08-07T14:01:57;17.10;1.00
37530;DHT22;23374;52.758;6.872;2023-08-07T14:04:17;17.10;1.00
37530;DHT22;23374;52.758;6.872;2023-08-07T14:06:39;17.10;1.00
37530;DHT22;23374;52.758;6.872;2023-08-07T14:08:59;17.10;1.00
37530;DHT22;23374;52.758;6.872;2023-08-07T14:11:20;17.20;1.00
37530;DHT22;23374;52.758;6.872;2023-08-07T14:13:41;17.30;1.00
37530;DHT22;23374;52.758;6.872;2023-08-07T14:16:02;17.30;1.00
37530;DHT22;23374;52.758;6.872;2023-08-07T14:18:23;17.40;1.00
37530;DHT22;23374;52.758;6.872;2023-08-07T14:20:44;17.40;1.00
37530;DHT22;23374;52.758;6.872;2023-08-07T14:23:04;17.40;1.00
37530;DHT22;23374;52.758;6.872;2023-08-07T14:25:25;17.50;1.00
37530;DHT22;23374;52.758;6.872;2023-08-07T14:27:45;17.70;1.00
37530;DHT22;23374;52.758;6.872;2023-08-07T14:30:07;17.70;1.00
37530;DHT22;23374;52.758;6.872;2023-08-07T14:32:27;17.60;1.00
37530;DHT22;23374;52.758;6.872;2023-08-07T14:34:48;17.40;1.00
37530;DHT22;23374;52.758;6.872;2023-08-07T14:37:09;17.30;1.00
37530;DHT22;23374;52.758;6.872;2023-08-07T14:39:34;17.10;1.00
37530;DHT22;23374;52.758;6.872;2023-08-07T14:41:55;17.00;1.00
37530;DHT22;23374;52.758;6.872;2023-08-07T14:44:15;16.90;1.00
37530;DHT22;23374;52.758;6.872;2023-08-07T14:46:35;16.80;1.00
37530;DHT22;23374;52.758;6.872;2023-08-07T14:48:56;16.80;1.00
37530;DHT22;23374;52.758;6.872;2023-08-07T14:51:17;16.70;1.00
37530;DHT22;23374;52.758;6.872;2023-08-07T14:53:37;16.70;7.00
37530;DHT22;23374;52.758;6.872;2023-08-07T14:55:58;16.70;24.90
37530;DHT22;23374;52.758;6.872;2023-08-07T14:58:18;16.70;16.40
37530;DHT22;23374;52.758;6.872;2023-08-07T15:00:38;16.70;10.70